Time;durP1;ratioP1;P1;durP2;ratioP2;P2;SDS_P1;SDS_P2;PMS_P1;PMS_P2;Temp;Humidity;BMP_temperature;BMP_pressure;BME280_temperature;BME280_humidity;BME280_pressure;Samples;Min_cycle;Max_cycle;Signal;HPM_P1;HPM_P2
2022/08/21 00:03:32;;;;;;;11.40;4.70;;;;;;;22.81;100.00;100016.05;657427;1280;22543;-84
2022/08/21 00:18:36;;;;;;;5.70;3.80;;;;;;;22.69;100.00;99995.90;656754;1283;22548;-86
2022/08/21 00:33:39;;;;;;;8.70;5.20;;;;;;;22.69;100.00;99970.04;656196;1283;1237528;-85
2022/08/21 00:48:42;;;;;;;8.80;5.10;;;;;;;22.68;100.00;99938.48;655547;1283;23592;-86
2022/08/21 01:03:46;;;;;;;10.30;5.60;;;;;;;22.69;100.00;99923.76;657521;1283;30724;-84
2022/08/21 01:18:52;;;;;;;12.00;6.30;;;;;;;22.76;100.00;99912.07;657812;1283;22546;-86
2022/08/21 01:33:56;;;;;;;12.90;5.90;;;;;;;22.78;100.00;99919.51;657915;1283;25548;-84
2022/08/21 01:48:59;;;;;;;14.00;6.20;;;;;;;22.77;100.00;99935.34;657637;1283;25358;-85
2022/08/21 02:04:03;;;;;;;12.30;7.10;;;;;;;22.78;100.00;99928.51;656136;1282;27756;-86
2022/08/21 02:19:07;;;;;;;11.50;6.70;;;;;;;22.75;100.00;99936.06;656648;1282;22585;-87
2022/08/21 02:34:10;;;;;;;9.40;6.20;;;;;;;22.73;100.00;99946.99;657543;1283;22582;-85
2022/08/21 02:49:13;;;;;;;12.10;7.40;;;;;;;22.76;100.00;99942.55;658149;1283;23547;-85
2022/08/21 03:04:16;;;;;;;9.70;6.60;;;;;;;22.65;100.00;99937.26;657528;1282;25349;-85
2022/08/21 03:19:20;;;;;;;17.40;7.30;;;;;;;22.61;100.00;99936.03;655889;1282;25340;-85
2022/08/21 03:34:23;;;;;;;10.50;6.50;;;;;;;22.53;100.00;99937.72;656550;1280;24263;-85
2022/08/21 03:49:27;;;;;;;11.20;7.30;;;;;;;22.49;100.00;99946.73;658112;1283;23368;-84
2022/08/21 04:04:31;;;;;;;9.80;7.70;;;;;;;22.56;100.00;99948.54;659283;1282;24358;-86
2022/08/21 04:19:34;;;;;;;10.20;7.10;;;;;;;22.55;100.00;99957.02;657432;1283;25021;-86
2022/08/21 04:34:38;;;;;;;9.20;7.30;;;;;;;22.62;100.00;99961.77;658225;1283;24404;-86
2022/08/21 04:49:41;;;;;;;11.20;7.50;;;;;;;22.73;100.00;99983.36;659447;1282;24311;-86
2022/08/21 05:04:51;;;;;;;12.20;7.80;;;;;;;22.89;100.00;99996.73;658795;1283;24397;-85
2022/08/21 05:19:54;;;;;;;13.80;9.30;;;;;;;23.16;100.00;100011.11;657881;1283;24468;-87
2022/08/21 05:34:57;;;;;;;20.60;14.60;;;;;;;23.40;100.00;100000.49;657135;1282;23555;-86
2022/08/21 05:50:01;;;;;;;13.20;9.30;;;;;;;23.69;100.00;100000.53;657796;1283;23654;-86
2022/08/21 06:05:05;;;;;;;13.50;9.10;;;;;;;24.10;100.00;100005.73;658010;1282;25385;-87
2022/08/21 06:20:09;;;;;;;13.20;9.10;;;;;;;24.78;100.00;100004.76;657174;1283;25407;-86
2022/08/21 06:35:13;;;;;;;10.20;7.80;;;;;;;25.67;100.00;100002.45;657434;1281;22534;-86
2022/08/21 06:50:16;;;;;;;12.40;7.60;;;;;;;26.39;100.00;99986.41;656177;1283;23513;-86
2022/08/21 07:05:19;;;;;;;12.70;7.40;;;;;;;26.74;100.00;99969.02;657865;1283;24373;-83
2022/08/21 07:20:22;;;;;;;10.40;8.90;;;;;;;27.33;100.00;99975.83;656614;1283;25399;-85
2022/08/21 07:35:27;;;;;;;12.00;9.70;;;;;;;27.70;100.00;99981.94;658989;1282;24443;-83
2022/08/21 07:50:30;;;;;;;14.30;9.70;;;;;;;28.25;100.00;99982.79;657679;1283;22613;-81
2022/08/21 08:05:36;;;;;;;10.30;9.10;;;;;;;27.87;100.00;99983.11;657211;1281;22546;-81
2022/08/21 08:20:40;;;;;;;12.50;9.00;;;;;;;28.89;100.00;99980.96;661064;1282;24274;-82
2022/08/21 08:35:47;;;;;;;14.60;8.40;;;;;;;29.78;99.79;99975.15;659973;1282;22590;-83
2022/08/21 08:50:56;;;;;;;11.80;8.40;;;;;;;30.22;97.62;99970.46;659809;1283;22550;-83
2022/08/21 09:06:37;;;;;;;9.80;7.20;;;;;;;29.99;92.87;99968.79;659577;1283;25280;-82
2022/08/21 09:22:07;;;;;;;9.30;8.40;;;;;;;30.78;90.39;99973.89;664798;1282;22576;-83
2022/08/21 09:37:17;;;;;;;10.00;7.50;;;;;;;30.73;88.15;99964.02;668239;1282;22566;-83
2022/08/21 09:52:25;;;;;;;7.80;7.10;;;;;;;31.85;84.82;99962.96;667872;1281;22560;-83
2022/08/21 10:07:29;;;;;;;;;;;;;;;32.35;80.64;99955.58;668112;1282;22614;-83
2022/08/21 10:23:01;;;;;;;8.50;7.40;;;;;;;32.53;78.49;99945.21;667458;1282;22691;-82
2022/08/21 10:38:36;;;;;;;12.60;8.30;;;;;;;33.31;77.98;99947.38;667663;1282;22544;-83
2022/08/21 10:54:22;;;;;;;15.70;9.60;;;;;;;32.30;78.56;99946.29;666996;1282;22556;-83
2022/08/21 11:09:27;;;;;;;13.20;8.60;;;;;;;31.84;80.04;99950.06;666742;1283;25717;-83
2022/08/21 11:24:40;;;;;;;13.50;9.00;;;;;;;31.41;80.47;99947.27;665684;1280;23218;-82
2022/08/21 11:39:56;;;;;;;10.80;8.10;;;;;;;31.10;81.06;99951.53;665759;1280;22569;-82
2022/08/21 11:55:09;;;;;;;8.80;7.60;;;;;;;30.92;81.36;99951.39;667293;1280;22544;-83
2022/08/21 12:10:20;;;;;;;9.40;7.90;;;;;;;31.04;81.66;99944.14;666473;1280;22602;-82
2022/08/21 12:25:24;;;;;;;10.10;8.00;;;;;;;31.03;80.35;99932.27;665391;1280;23351;-81
2022/08/21 12:40:45;;;;;;;13.60;6.90;;;;;;;31.63;80.29;99926.93;662765;1282;1484883;-82
2022/08/21 12:55:50;;;;;;;10.30;7.20;;;;;;;31.69;78.90;99929.91;665925;1282;22564;-81
2022/08/21 13:11:02;;;;;;;7.80;7.00;;;;;;;30.60;81.43;99937.67;664247;1282;22547;-82
2022/08/21 13:26:21;;;;;;;12.20;8.20;;;;;;;30.08;85.82;99934.42;665274;1282;25503;-83
2022/08/21 13:41:28;;;;;;;9.70;7.20;;;;;;;29.90;87.80;99946.77;665131;1282;22515;-83
2022/08/21 13:56:42;;;;;;;10.70;7.60;;;;;;;29.24;90.60;99954.24;667049;1280;25303;-82
2022/08/21 14:11:46;;;;;;;8.50;6.20;;;;;;;28.79;93.33;99957.46;668949;1281;22593;-83
2022/08/21 14:26:53;;;;;;;9.40;6.50;;;;;;;28.10;95.02;99970.56;667954;1280;22556;-82
2022/08/21 14:41:57;;;;;;;8.00;4.80;;;;;;;27.32;97.68;99967.84;667305;1280;24325;-81
2022/08/21 14:57:05;;;;;;;10.90;5.70;;;;;;;26.66;99.95;99979.62;667616;1282;22659;-81
2022/08/21 15:12:12;;;;;;;13.00;5.70;;;;;;;26.12;100.00;99990.92;668062;1281;24801;-83
2022/08/21 15:27:17;;;;;;;9.40;4.10;;;;;;;25.88;100.00;99995.92;670234;1280;23264;-83
2022/08/21 15:42:21;;;;;;;5.20;3.90;;;;;;;25.23;100.00;100017.48;669792;1280;24242;-82
2022/08/21 15:57:26;;;;;;;6.60;4.00;;;;;;;24.43;100.00;100025.71;666369;1278;23187;-82
2022/08/21 16:12:32;;;;;;;8.60;4.20;;;;;;;24.03;100.00;100012.45;664585;1281;22563;-84
2022/08/21 16:27:36;;;;;;;10.40;4.80;;;;;;;24.00;100.00;100033.14;660046;1283;22582;-85
2022/08/21 16:42:43;;;;;;;6.70;3.80;;;;;;;23.81;100.00;100035.55;657397;1280;24283;-85
2022/08/21 16:57:47;;;;;;;8.20;4.90;;;;;;;23.65;100.00;100039.85;656899;1280;25257;-87
2022/08/21 17:12:56;;;;;;;7.40;4.80;;;;;;;23.53;100.00;100056.66;657102;1282;30964;-88
2022/08/21 17:28:02;;;;;;;11.20;6.50;;;;;;;23.36;100.00;100065.80;656458;1280;24351;-86
2022/08/21 17:43:10;;;;;;;5.10;3.40;;;;;;;23.35;100.00;100088.46;656970;1280;23931;-85
2022/08/21 17:58:15;;;;;;;7.20;3.60;;;;;;;23.30;100.00;100102.97;657364;1280;23451;-89
2022/08/21 18:13:25;;;;;;;6.60;3.20;;;;;;;23.14;100.00;100115.02;658707;1280;140898;-89
2022/08/21 18:28:30;;;;;;;7.70;3.60;;;;;;;22.94;100.00;100128.06;655923;1280;139432;-87
2022/08/21 18:43:35;;;;;;;8.30;3.90;;;;;;;22.71;100.00;100120.34;655848;1281;139495;-87
2022/08/21 18:58:38;;;;;;;6.80;4.10;;;;;;;22.34;100.00;100127.23;655767;1280;139285;-87
2022/08/21 19:13:43;;;;;;;7.90;3.40;;;;;;;22.11;100.00;100136.04;655020;1282;141285;-89
2022/08/21 19:28:50;;;;;;;8.50;3.40;;;;;;;21.96;100.00;100152.15;654980;1283;139880;-86
2022/08/21 19:43:57;;;;;;;9.00;3.40;;;;;;;21.76;100.00;100169.11;660168;1281;139621;-85
2022/08/21 19:59:00;;;;;;;8.80;3.50;;;;;;;21.71;100.00;100166.65;654873;1281;139328;-85
2022/08/21 20:14:15;;;;;;;8.10;3.00;;;;;;;21.63;100.00;100155.54;655408;1280;140659;-84
2022/08/21 20:29:19;;;;;;;7.10;5.10;;;;;;;21.42;100.00;100171.42;657238;1281;139623;-87
2022/08/21 20:44:43;;;;;;;6.00;3.70;;;;;;;21.54;100.00;100160.54;656594;1283;139619;-87
2022/08/21 21:00:06;;;;;;;5.30;3.10;;;;;;;21.48;100.00;100160.29;656959;1277;141157;-88
2022/08/21 21:15:28;;;;;;;7.50;3.00;;;;;;;21.35;100.00;100176.29;656979;1277;142285;-86
2022/08/21 21:30:36;;;;;;;6.70;3.10;;;;;;;21.15;100.00;100169.56;656275;1277;141510;-86
2022/08/21 21:46:01;;;;;;;5.60;3.00;;;;;;;21.17;100.00;100181.45;656063;1277;140366;-87
2022/08/21 22:01:17;;;;;;;6.10;2.50;;;;;;;21.19;100.00;100189.82;657225;1277;139947;-86
2022/08/21 22:16:21;;;;;;;3.70;2.40;;;;;;;20.73;100.00;100183.56;656109;1277;140072;-87
2022/08/21 22:31:32;;;;;;;5.70;2.00;;;;;;;20.40;100.00;100187.44;656678;1277;140999;-86
2022/08/21 22:46:53;;;;;;;4.20;2.20;;;;;;;20.25;100.00;100188.60;655534;1277;139218;-85
2022/08/21 23:02:28;;;;;;;5.00;2.20;;;;;;;20.13;100.00;100194.17;655186;1277;139245;-87
2022/08/21 23:17:54;;;;;;;5.90;2.60;;;;;;;20.10;100.00;100193.39;655195;1278;139480;-88
2022/08/21 23:33:08;;;;;;;5.10;2.50;;;;;;;20.04;100.00;100194.94;655320;1277;140509;-86
2022/08/21 23:48:37;;;;;;;4.50;2.70;;;;;;;19.83;100.00;100194.02;655809;1277;139120;-83
